createdAt,value
2018-11-12T00:00:18.564Z,16.70
2018-11-12T00:02:50.744Z,18.77
2018-11-12T00:05:20.073Z,20.67
2018-11-12T00:07:49.390Z,19.40
2018-11-12T00:10:18.684Z,19.93
2018-11-12T00:12:48.037Z,19.13
2018-11-12T00:15:17.364Z,21.13
2018-11-12T00:17:46.648Z,19.73
2018-11-12T00:20:16.813Z,20.17
2018-11-12T00:22:46.475Z,20.47
2018-11-12T00:25:15.657Z,19.93
2018-11-12T00:27:44.991Z,19.60
2018-11-12T00:30:15.793Z,19.40
2018-11-12T00:32:45.877Z,19.70
2018-11-12T00:35:15.151Z,20.47
2018-11-12T00:37:44.953Z,20.33
2018-11-12T00:40:16.129Z,18.90
2018-11-12T00:42:45.664Z,18.33
2018-11-12T00:45:15.432Z,18.77
2018-11-12T00:47:44.771Z,18.37
2018-11-12T00:50:14.913Z,18.57
2018-11-12T00:52:44.253Z,17.93
2018-11-12T00:55:15.314Z,18.37
2018-11-12T00:57:44.959Z,18.03
2018-11-12T01:00:16.058Z,17.83
2018-11-12T01:02:46.763Z,16.90
2018-11-12T01:05:16.529Z,17.43
2018-11-12T01:07:46.409Z,17.50
2018-11-12T01:10:16.674Z,17.40
2018-11-12T01:12:46.133Z,17.43
2018-11-12T01:15:16.730Z,20.07
2018-11-12T01:17:46.036Z,23.23
2018-11-12T01:20:16.111Z,22.93
2018-11-12T01:22:45.752Z,24.57
2018-11-12T01:25:15.445Z,23.30
2018-11-12T01:27:45.081Z,22.53
2018-11-12T01:30:18.098Z,21.00
2018-11-12T01:32:47.641Z,17.33
2018-11-12T01:35:18.113Z,16.23
2018-11-12T01:37:47.421Z,16.77
2018-11-12T01:40:17.087Z,16.27
2018-11-12T01:42:46.739Z,16.33
2018-11-12T01:45:17.336Z,16.73
2018-11-12T01:47:47.893Z,14.97
2018-11-12T01:50:17.560Z,15.77
2018-11-12T01:52:47.340Z,13.97
2018-11-12T01:55:17.598Z,14.50
2018-11-12T01:57:46.812Z,14.70
2018-11-12T02:00:18.231Z,15.90
2018-11-12T02:02:48.454Z,15.47
2018-11-12T02:05:18.362Z,15.53
2018-11-12T02:07:47.599Z,15.20
2018-11-12T02:10:17.710Z,17.73
2018-11-12T02:12:47.171Z,18.27
2018-11-12T02:15:17.623Z,18.87
2018-11-12T02:17:47.771Z,18.03
2018-11-12T02:20:18.165Z,18.20
2018-11-12T02:22:48.944Z,18.07
2018-11-12T02:25:18.003Z,17.20
2018-11-12T02:27:47.226Z,15.80
2018-11-12T02:30:22.631Z,16.60
2018-11-12T02:32:51.885Z,17.27
2018-11-12T02:35:20.962Z,15.97
2018-11-12T02:37:50.107Z,15.50
2018-11-12T02:40:19.448Z,15.07
2018-11-12T02:42:48.657Z,14.30
2018-11-12T02:45:18.182Z,13.67
2018-11-12T02:47:47.361Z,13.77
2018-11-12T02:50:17.526Z,14.53
2018-11-12T02:52:46.893Z,13.70
2018-11-12T02:55:16.469Z,13.73
2018-11-12T02:57:46.219Z,14.60
2018-11-12T03:00:18.406Z,15.17
2018-11-12T03:02:47.892Z,16.53
2018-11-12T03:05:17.185Z,16.23
2018-11-12T03:07:46.482Z,17.57
2018-11-12T03:10:17.875Z,15.03
2018-11-12T03:12:47.835Z,14.77
2018-11-12T03:15:17.883Z,15.97
2018-11-12T03:17:47.664Z,14.63
2018-11-12T03:20:18.231Z,14.20
2018-11-12T03:22:47.404Z,13.70
2018-11-12T03:25:18.793Z,13.37
2018-11-12T03:27:48.589Z,13.77
2018-11-12T03:30:20.272Z,15.60
2018-11-12T03:32:50.118Z,15.80
2018-11-12T03:35:19.303Z,16.33
2018-11-12T03:37:49.486Z,15.10
2018-11-12T03:40:20.623Z,15.67
2018-11-12T03:42:50.433Z,15.23
2018-11-12T03:45:20.784Z,14.80
2018-11-12T03:47:50.120Z,15.00
2018-11-12T03:50:20.767Z,14.50
2018-11-12T03:52:49.980Z,16.10
2018-11-12T03:55:20.358Z,15.20
2018-11-12T03:57:49.844Z,15.10
2018-11-12T04:00:23.316Z,15.23
2018-11-12T04:02:52.834Z,14.70
2018-11-12T04:05:22.199Z,15.00
2018-11-12T04:07:51.287Z,15.10
2018-11-12T04:10:21.401Z,15.73
2018-11-12T04:12:51.086Z,17.37
2018-11-12T04:15:22.729Z,17.63
2018-11-12T04:17:51.855Z,15.53
2018-11-12T04:20:22.259Z,15.87
2018-11-12T04:22:56.893Z,17.87
2018-11-12T04:25:26.527Z,29.77
2018-11-12T04:27:55.610Z,32.43
2018-11-12T04:30:24.951Z,36.23
2018-11-12T04:32:54.157Z,40.50
2018-11-12T04:35:23.301Z,38.60
2018-11-12T04:37:52.573Z,37.13
2018-11-12T04:40:21.718Z,32.57
2018-11-12T04:42:51.101Z,40.93
2018-11-12T04:45:21.500Z,20.63
2018-11-12T04:47:51.562Z,26.13
2018-11-12T04:50:21.965Z,26.67
2018-11-12T04:52:51.447Z,24.10
2018-11-12T04:55:21.742Z,25.67
2018-11-12T04:57:51.134Z,31.20
2018-11-12T05:00:23.249Z,29.70
2018-11-12T05:02:52.489Z,29.57
2018-11-12T05:05:22.862Z,46.83
2018-11-12T05:07:52.153Z,44.27
2018-11-12T05:10:22.388Z,41.70
2018-11-12T05:12:52.544Z,35.67
2018-11-12T05:15:22.561Z,37.67
2018-11-12T05:17:51.611Z,43.33
2018-11-12T05:20:25.138Z,43.93
2018-11-12T05:22:54.373Z,30.87
2018-11-12T05:25:23.462Z,23.10
2018-11-12T05:27:52.654Z,18.97
2018-11-12T05:30:24.941Z,19.53
2018-11-12T05:32:54.288Z,20.17
2018-11-12T05:35:24.497Z,22.90
2018-11-12T05:37:54.100Z,23.93
2018-11-12T05:40:25.499Z,27.67
2018-11-12T05:42:54.987Z,27.93
2018-11-12T05:45:27.117Z,31.60
2018-11-12T05:47:56.666Z,29.33
2018-11-12T05:50:28.927Z,28.67
2018-11-12T05:53:00.481Z,28.50
2018-11-12T05:55:30.510Z,24.93
2018-11-12T05:58:00.026Z,24.43
2018-11-12T06:00:30.420Z,24.23
2018-11-12T06:02:59.686Z,24.83
2018-11-12T06:05:28.730Z,26.63
2018-11-12T06:07:57.822Z,24.40
2018-11-12T06:10:28.392Z,26.83
2018-11-12T06:12:57.538Z,28.27
2018-11-12T06:15:26.687Z,31.60
2018-11-12T06:17:56.063Z,29.53
2018-11-12T06:20:26.465Z,31.20
2018-11-12T06:22:56.002Z,28.80
2018-11-12T06:25:32.582Z,30.00
2018-11-12T06:28:02.184Z,26.27
2018-11-12T06:30:32.646Z,23.83
2018-11-12T06:33:02.964Z,21.37
2018-11-12T06:35:32.222Z,21.47
2018-11-12T06:38:01.239Z,23.60
2018-11-12T06:40:31.534Z,21.00
2018-11-12T06:43:00.880Z,20.80
2018-11-12T06:45:31.185Z,20.00
2018-11-12T06:48:00.861Z,20.73
2018-11-12T06:50:32.158Z,21.73
2018-11-12T06:53:02.388Z,20.83
2018-11-12T06:55:31.529Z,20.20
2018-11-12T06:58:01.168Z,18.70
2018-11-12T07:00:31.639Z,19.00
2018-11-12T07:03:01.243Z,19.73
2018-11-12T07:05:30.943Z,18.50
2018-11-12T07:08:00.271Z,19.83
2018-11-12T07:10:30.059Z,19.70
2018-11-12T07:13:00.059Z,20.43
2018-11-12T07:15:29.679Z,28.13
2018-11-12T07:17:59.110Z,25.50
2018-11-12T07:20:28.881Z,24.20
2018-11-12T07:22:58.219Z,29.10
2018-11-12T07:25:28.891Z,23.27
2018-11-12T07:27:58.359Z,20.90
2018-11-12T07:30:28.537Z,24.80
2018-11-12T07:32:58.683Z,23.57
2018-11-12T07:35:28.347Z,21.90
2018-11-12T07:37:58.087Z,21.23
2018-11-12T07:40:31.828Z,22.17
2018-11-12T07:43:00.926Z,20.50
2018-11-12T07:45:30.058Z,21.60
2018-11-12T07:48:00.034Z,24.27
2018-11-12T07:50:30.330Z,21.17
2018-11-12T07:52:59.658Z,21.03
2018-11-12T07:55:29.513Z,21.97
2018-11-12T07:57:59.481Z,19.73
2018-11-12T08:00:30.134Z,19.73
2018-11-12T08:03:06.353Z,19.67
2018-11-12T08:05:36.426Z,21.77
2018-11-12T08:08:05.804Z,19.43
2018-11-12T08:10:35.226Z,19.73
2018-11-12T08:13:04.995Z,17.77
2018-11-12T08:15:34.111Z,16.90
2018-11-12T08:18:03.223Z,18.67
2018-11-12T08:20:32.576Z,19.47
2018-11-12T08:23:01.738Z,18.60
2018-11-12T08:25:31.049Z,15.73
2018-11-12T08:28:00.394Z,16.37
2018-11-12T08:30:30.078Z,16.70
2018-11-12T08:33:00.470Z,16.67
2018-11-12T08:35:29.850Z,17.37
2018-11-12T08:37:59.223Z,16.77
2018-11-12T08:40:29.634Z,15.73
2018-11-12T08:42:58.900Z,16.00
2018-11-12T08:45:28.265Z,17.07
2018-11-12T08:47:58.058Z,17.43
2018-11-12T08:50:27.875Z,22.33
2018-11-12T08:52:57.646Z,18.50
2018-11-12T08:55:28.642Z,15.93
2018-11-12T08:57:59.371Z,16.30
2018-11-12T09:00:29.208Z,15.90
2018-11-12T09:02:58.486Z,16.17
2018-11-12T09:05:28.830Z,15.90
2018-11-12T09:07:59.470Z,17.30
2018-11-12T09:10:30.166Z,17.30
2018-11-12T09:12:59.637Z,17.10
2018-11-12T09:15:28.977Z,17.47
2018-11-12T09:17:58.224Z,18.67
2018-11-12T09:20:28.533Z,18.03
2018-11-12T09:22:57.816Z,19.03
2018-11-12T09:25:28.049Z,17.73
2018-11-12T09:27:57.427Z,18.37
2018-11-12T09:30:28.475Z,18.10
2018-11-12T09:32:57.985Z,19.00
2018-11-12T09:35:31.187Z,19.50
2018-11-12T09:38:01.496Z,19.67
2018-11-12T09:40:34.478Z,19.83
2018-11-12T09:43:03.632Z,19.13
2018-11-12T09:45:32.974Z,17.87
2018-11-12T09:48:02.224Z,17.77
2018-11-12T09:50:31.403Z,18.90
2018-11-12T09:53:01.912Z,19.17
2018-11-12T09:55:32.231Z,19.33
2018-11-12T09:58:04.653Z,20.63
2018-11-12T10:00:34.437Z,20.33
2018-11-12T10:03:05.074Z,20.03
2018-11-12T10:05:34.772Z,18.67
2018-11-12T10:08:10.636Z,19.13
2018-11-12T10:10:44.299Z,19.20
2018-11-12T10:13:15.266Z,19.13
2018-11-12T10:15:45.801Z,20.13
2018-11-12T10:20:41.877Z,20.80
2018-11-12T10:23:11.135Z,20.53
2018-11-12T10:25:40.323Z,21.93
2018-11-12T10:28:09.683Z,22.43
2018-11-12T10:30:39.019Z,20.30
2018-11-12T10:33:08.428Z,21.07
2018-11-12T10:35:37.760Z,19.13
2018-11-12T10:38:07.506Z,19.23
2018-11-12T10:40:36.878Z,20.93
2018-11-12T10:43:06.533Z,18.40
2018-11-12T10:45:35.754Z,18.33
2018-11-12T10:48:05.221Z,19.03
2018-11-12T10:50:35.082Z,19.00
2018-11-12T10:53:04.367Z,19.77
2018-11-12T10:55:33.845Z,19.90
2018-11-12T10:58:04.168Z,18.03
2018-11-12T11:00:39.019Z,17.53
2018-11-12T11:03:14.837Z,18.77
2018-11-12T11:05:45.225Z,18.33
2018-11-12T11:08:14.504Z,19.80
2018-11-12T11:10:43.991Z,18.53
2018-11-12T11:13:13.222Z,19.83
2018-11-12T11:15:42.778Z,19.77
2018-11-12T11:18:12.138Z,18.23
2018-11-12T11:20:41.403Z,16.70
2018-11-12T11:23:11.298Z,15.83
2018-11-12T11:25:40.689Z,15.87
2018-11-12T11:28:10.119Z,13.47
2018-11-12T11:30:39.495Z,17.47
2018-11-12T11:33:08.832Z,14.13
2018-11-12T11:35:38.137Z,13.73
2018-11-12T11:38:08.284Z,11.00
2018-11-12T11:40:37.662Z,14.33
2018-11-12T11:43:07.068Z,10.73
2018-11-12T11:45:36.223Z,11.30
2018-11-12T11:48:05.522Z,9.83
2018-11-12T11:50:34.858Z,10.73
2018-11-12T11:53:04.670Z,12.83
2018-11-12T11:55:33.898Z,10.80
2018-11-12T11:58:03.183Z,10.50
2018-11-12T12:00:32.422Z,9.47
2018-11-12T12:03:01.630Z,9.47
2018-11-12T12:05:31.083Z,10.07
2018-11-12T12:08:00.615Z,11.87
2018-11-12T12:10:29.673Z,12.10
2018-11-12T12:12:58.882Z,10.17
2018-11-12T12:15:28.186Z,10.83
2018-11-12T12:17:57.554Z,14.07
2018-11-12T12:20:27.291Z,21.23
2018-11-12T12:22:56.786Z,37.73
2018-11-12T12:25:25.932Z,46.17
2018-11-12T12:27:55.357Z,45.77
2018-11-12T12:30:26.022Z,31.70
2018-11-12T12:32:55.936Z,32.70
2018-11-12T12:35:25.135Z,31.07
2018-11-12T12:37:54.766Z,46.90
2018-11-12T12:40:24.944Z,69.27
2018-11-12T12:42:54.199Z,62.43
2018-11-12T12:45:25.074Z,85.83
2018-11-12T12:47:54.880Z,57.60
2018-11-12T12:50:24.006Z,52.03
2018-11-12T12:52:53.324Z,48.77
2018-11-12T12:55:22.679Z,42.77
2018-11-12T12:57:52.200Z,43.17
2018-11-12T13:00:23.837Z,38.90
2018-11-12T13:02:53.137Z,38.90
2018-11-12T13:05:22.443Z,34.77
2018-11-12T13:07:52.058Z,19.50
2018-11-12T13:10:22.278Z,19.70
2018-11-12T13:12:51.791Z,23.47
2018-11-12T13:15:21.418Z,24.93
2018-11-12T13:17:51.282Z,29.20
2018-11-12T13:20:22.008Z,29.17
2018-11-12T13:22:51.460Z,25.20
2018-11-12T13:25:20.801Z,19.83
2018-11-12T13:27:50.625Z,14.47
2018-11-12T13:30:21.147Z,14.70
2018-11-12T13:32:50.497Z,14.33
2018-11-12T13:35:21.420Z,14.70
2018-11-12T13:37:51.023Z,15.07
2018-11-12T13:40:21.326Z,14.73
2018-11-12T13:42:52.198Z,14.60
2018-11-12T13:45:21.666Z,15.20
2018-11-12T13:47:50.902Z,18.17
2018-11-12T13:50:22.323Z,13.73
2018-11-12T13:52:52.162Z,15.07
2018-11-12T13:55:22.382Z,14.00
2018-11-12T13:57:51.579Z,13.60
2018-11-12T14:00:24.494Z,14.70
2018-11-12T14:02:54.536Z,16.50
2018-11-12T14:05:27.104Z,16.73
2018-11-12T14:07:57.219Z,16.23
2018-11-12T14:10:28.090Z,16.10
2018-11-12T14:12:58.721Z,15.10
2018-11-12T14:15:28.120Z,16.23
2018-11-12T14:17:57.787Z,16.57
2018-11-12T14:20:27.396Z,13.93
2018-11-12T14:22:57.050Z,13.67
2018-11-12T14:25:26.610Z,13.50
2018-11-12T14:27:57.004Z,13.27
2018-11-12T14:30:29.385Z,12.83
2018-11-12T14:32:58.962Z,12.83
2018-11-12T14:35:28.647Z,16.67
2018-11-12T14:37:57.851Z,15.60
2018-11-12T14:40:27.394Z,13.43
2018-11-12T14:42:56.746Z,19.37
2018-11-12T14:45:25.990Z,16.87
2018-11-12T14:47:55.476Z,17.33
2018-11-12T14:50:24.742Z,15.50
2018-11-12T14:52:53.849Z,15.10
2018-11-12T14:55:23.227Z,16.07
2018-11-12T14:57:52.443Z,15.37
2018-11-12T15:00:25.842Z,17.17
2018-11-12T15:02:55.706Z,17.43
2018-11-12T15:05:25.808Z,18.83
2018-11-12T15:07:55.177Z,22.83
2018-11-12T15:10:24.275Z,31.07
2018-11-12T15:12:53.537Z,31.07
2018-11-12T15:15:22.875Z,31.77
2018-11-12T15:17:52.173Z,37.70
2018-11-12T15:20:21.671Z,33.87
2018-11-12T15:22:51.069Z,39.77
2018-11-12T15:25:22.993Z,40.30
2018-11-12T15:27:52.221Z,39.13
2018-11-12T15:30:22.826Z,35.37
2018-11-12T15:32:53.187Z,48.97
2018-11-12T15:35:22.471Z,50.23
2018-11-12T15:37:52.360Z,71.27
2018-11-12T15:40:21.562Z,151.00
2018-11-12T15:42:50.726Z,77.07
2018-11-12T15:45:21.281Z,112.00
2018-11-12T15:47:50.704Z,95.90
2018-11-12T15:50:31.420Z,79.10
2018-11-12T15:53:00.700Z,71.37
2018-11-12T15:55:29.791Z,47.20
2018-11-12T15:57:59.271Z,58.80
2018-11-12T16:00:28.599Z,246.50
2018-11-12T16:02:57.793Z,188.63
2018-11-12T16:05:27.320Z,166.50
2018-11-12T16:08:19.328Z,256.13
2018-11-12T16:11:07.409Z,243.40
2018-11-12T16:13:52.304Z,216.17
2018-11-12T16:16:27.052Z,100.43
2018-11-12T16:19:28.156Z,98.27
2018-11-12T16:22:12.539Z,75.77
2018-11-12T16:25:00.883Z,66.30
2018-11-12T16:32:19.106Z,85.03
2018-11-12T16:35:08.105Z,84.70
2018-11-12T16:37:38.528Z,80.50
2018-11-12T16:40:08.714Z,79.67
2018-11-12T16:42:38.951Z,81.40
2018-11-12T16:45:08.281Z,81.87
2018-11-12T16:47:37.749Z,80.30
2018-11-12T16:50:08.346Z,77.70
2018-11-12T16:52:37.475Z,71.93
2018-11-12T16:55:09.951Z,64.10
2018-11-12T16:57:39.303Z,61.63
2018-11-12T17:00:14.981Z,58.37
2018-11-12T17:02:49.500Z,62.83
2018-11-12T17:05:21.151Z,62.40
2018-11-12T17:07:50.454Z,62.17
2018-11-12T17:10:21.103Z,64.40
2018-11-12T17:12:50.453Z,68.30
2018-11-12T17:15:19.712Z,65.20
2018-11-12T17:17:49.211Z,71.23
2018-11-12T17:20:19.627Z,76.80
2018-11-12T17:22:48.825Z,81.77
2018-11-12T17:25:18.647Z,75.33
2018-11-12T17:27:48.147Z,67.70
2018-11-12T17:30:19.215Z,72.43
2018-11-12T17:32:48.620Z,74.30
2018-11-12T17:35:19.092Z,66.80
2018-11-12T17:37:48.419Z,68.13
2018-11-12T17:40:20.019Z,81.90
2018-11-12T17:42:50.851Z,90.93
2018-11-12T17:45:21.650Z,91.83
2018-11-12T17:47:51.751Z,91.73
2018-11-12T17:50:21.209Z,83.17
2018-11-12T17:52:50.437Z,72.30
2018-11-12T17:55:19.711Z,68.13
2018-11-12T17:57:49.286Z,58.17
2018-11-12T18:00:21.508Z,53.17
2018-11-12T18:02:51.542Z,46.83
2018-11-12T18:05:20.890Z,44.07
2018-11-12T18:07:50.292Z,39.60
2018-11-12T18:10:20.121Z,36.90
2018-11-12T18:12:49.892Z,38.03
2018-11-12T18:15:21.285Z,37.17
2018-11-12T18:17:51.161Z,37.40
2018-11-12T18:20:27.232Z,39.73
2018-11-12T18:22:56.958Z,38.43
2018-11-12T18:25:28.505Z,40.03
2018-11-12T18:27:57.673Z,44.70
2018-11-12T18:30:28.345Z,56.57
2018-11-12T18:32:58.292Z,54.70
2018-11-12T18:35:27.549Z,58.03
2018-11-12T18:37:57.268Z,51.03
2018-11-12T18:40:28.719Z,46.77
2018-11-12T18:42:58.783Z,48.97
2018-11-12T18:45:28.469Z,56.37
2018-11-12T18:47:58.674Z,59.47
2018-11-12T18:50:30.481Z,58.03
2018-11-12T18:52:59.726Z,53.60
2018-11-12T18:55:29.059Z,50.30
2018-11-12T18:57:58.693Z,40.60
2018-11-12T19:00:28.106Z,38.03
2018-11-12T19:02:57.741Z,32.97
2018-11-12T19:05:29.093Z,34.37
2018-11-12T19:08:00.747Z,32.23
2018-11-12T19:10:32.126Z,36.67
2018-11-12T19:13:01.662Z,38.30
2018-11-12T19:15:36.104Z,39.27
2018-11-12T19:18:08.002Z,38.23
2018-11-12T19:20:37.137Z,34.87
2018-11-12T19:23:06.702Z,31.60
2018-11-12T19:25:36.309Z,30.33
2018-11-12T19:28:06.406Z,28.53
2018-11-12T19:30:35.579Z,28.63
2018-11-12T19:33:04.912Z,25.70
2018-11-12T19:35:34.074Z,27.50
2018-11-12T19:38:03.203Z,29.90
2018-11-12T19:40:33.715Z,43.63
2018-11-12T19:43:03.717Z,44.10
2018-11-12T19:45:32.945Z,50.10
2018-11-12T19:48:02.137Z,48.40
2018-11-12T19:50:42.016Z,42.20
2018-11-12T19:53:11.283Z,31.90
2018-11-12T19:55:40.599Z,29.90
2018-11-12T19:58:09.977Z,26.30
2018-11-12T20:00:39.153Z,26.87
2018-11-12T20:03:08.393Z,27.60
2018-11-12T20:05:37.758Z,27.00
2018-11-12T20:08:10.712Z,26.03
2018-11-12T20:10:40.043Z,30.00
2018-11-12T20:13:14.454Z,27.53
2018-11-12T20:15:45.770Z,28.17
2018-11-12T20:21:01.240Z,32.70
2018-11-12T20:23:30.867Z,35.43
2018-11-12T20:26:02.812Z,35.43
2018-11-12T20:28:33.394Z,35.57
2018-11-12T20:31:02.540Z,38.43
2018-11-12T20:33:31.842Z,38.23
2018-11-12T20:36:01.405Z,44.30
2018-11-12T20:38:30.679Z,54.10
2018-11-12T20:41:00.163Z,58.77
2018-11-12T20:43:30.166Z,56.87
2018-11-12T20:45:59.904Z,53.63
2018-11-12T20:48:29.698Z,49.50
2018-11-12T20:50:59.260Z,51.17
2018-11-12T20:53:29.726Z,47.60
2018-11-12T20:55:58.827Z,50.67
2018-11-12T20:58:28.523Z,49.50
2018-11-12T21:00:57.855Z,49.43
2018-11-12T21:03:27.146Z,48.70
2018-11-12T21:05:56.638Z,47.70
2018-11-12T21:08:25.827Z,47.93
2018-11-12T21:10:54.835Z,45.20
2018-11-12T21:13:24.183Z,44.03
2018-11-12T21:15:53.518Z,47.23
2018-11-12T21:18:23.019Z,42.73
2018-11-12T21:20:52.453Z,29.67
2018-11-12T21:23:21.711Z,30.30
2018-11-12T21:25:51.115Z,36.40
2018-11-12T21:28:20.516Z,33.57
2018-11-12T21:30:49.858Z,31.83
2018-11-12T21:33:19.009Z,30.50
2018-11-12T21:35:48.526Z,32.67
2018-11-12T21:38:17.621Z,32.37
2018-11-12T21:40:46.862Z,31.00
2018-11-12T21:43:16.396Z,30.33
2018-11-12T21:45:45.841Z,32.07
2018-11-12T21:48:15.170Z,31.17
2018-11-12T21:50:44.678Z,31.77
2018-11-12T21:53:13.971Z,32.37
2018-11-12T21:55:43.157Z,32.47
2018-11-12T21:58:12.579Z,33.67
2018-11-12T22:00:41.947Z,34.83
2018-11-12T22:03:11.256Z,41.80
2018-11-12T22:05:40.601Z,35.27
2018-11-12T22:08:09.843Z,36.13
2018-11-12T22:10:39.052Z,42.23
2018-11-12T22:13:08.375Z,46.30
2018-11-12T22:15:37.728Z,48.37
2018-11-12T22:18:07.243Z,49.50
2018-11-12T22:20:36.771Z,51.27
2018-11-12T22:23:06.149Z,57.83
2018-11-12T22:25:35.351Z,58.33
2018-11-12T22:28:04.586Z,68.90
2018-11-12T22:30:34.053Z,76.30
2018-11-12T22:33:03.351Z,76.97
2018-11-12T22:35:32.826Z,57.93
2018-11-12T22:38:01.955Z,53.10
2018-11-12T22:40:30.923Z,52.27
2018-11-12T22:43:00.158Z,54.70
2018-11-12T22:45:29.235Z,51.83
2018-11-12T22:47:58.350Z,51.43
2018-11-12T22:50:27.937Z,51.03
2018-11-12T22:52:57.243Z,50.93
2018-11-12T22:55:26.450Z,49.00
2018-11-12T22:57:55.822Z,45.73
2018-11-12T23:00:28.506Z,47.80
2018-11-12T23:02:58.668Z,49.03
2018-11-12T23:05:27.829Z,49.27
2018-11-12T23:07:57.091Z,48.93
2018-11-12T23:10:26.281Z,49.30
2018-11-12T23:12:55.656Z,47.43
2018-11-12T23:15:24.937Z,44.30
2018-11-12T23:17:54.423Z,44.20
2018-11-12T23:20:25.146Z,43.20
2018-11-12T23:22:54.693Z,43.87
2018-11-12T23:25:24.595Z,42.97
2018-11-12T23:27:54.514Z,45.47
2018-11-12T23:30:24.800Z,44.40
2018-11-12T23:32:54.435Z,44.13
2018-11-12T23:35:24.861Z,42.43
2018-11-12T23:37:54.189Z,43.03
2018-11-12T23:40:23.339Z,42.70
2018-11-12T23:42:52.574Z,43.03
2018-11-12T23:45:22.004Z,41.13
2018-11-12T23:47:51.154Z,43.77
2018-11-12T23:50:21.796Z,48.37
2018-11-12T23:52:51.890Z,53.33
2018-11-12T23:55:21.340Z,48.63
2018-11-12T23:57:50.890Z,49.90
